sensor_id;sensor_type;location;lat;lon;timestamp;temperature;humidity
64634;DHT22;51043;52.406;9.690;2023-03-11T00:00:41;0.30;99.90
64634;DHT22;51043;52.406;9.690;2023-03-11T00:03:14;0.30;99.90
64634;DHT22;51043;52.406;9.690;2023-03-11T00:05:42;0.30;99.90
64634;DHT22;51043;52.406;9.690;2023-03-11T00:08:14;0.30;99.90
64634;DHT22;51043;52.406;9.690;2023-03-11T00:10:44;0.30;99.90
64634;DHT22;51043;52.406;9.690;2023-03-11T00:13:13;0.30;99.90
64634;DHT22;51043;52.406;9.690;2023-03-11T00:15:42;0.30;99.90
64634;DHT22;51043;52.406;9.690;2023-03-11T00:18:10;0.30;99.90
64634;DHT22;51043;52.406;9.690;2023-03-11T00:20:39;0.30;99.90
64634;DHT22;51043;52.406;9.690;2023-03-11T00:23:08;0.30;99.90
64634;DHT22;51043;52.406;9.690;2023-03-11T00:25:37;0.30;99.90
64634;DHT22;51043;52.406;9.690;2023-03-11T00:28:05;0.30;99.90
64634;DHT22;51043;52.406;9.690;2023-03-11T00:30:37;0.30;99.90
64634;DHT22;51043;52.406;9.690;2023-03-11T00:33:04;0.30;99.90
64634;DHT22;51043;52.406;9.690;2023-03-11T00:35:33;0.30;99.90
64634;DHT22;51043;52.406;9.690;2023-03-11T00:38:04;0.30;99.90
64634;DHT22;51043;52.406;9.690;2023-03-11T00:40:33;0.30;99.90
64634;DHT22;51043;52.406;9.690;2023-03-11T00:43:02;0.30;99.90
64634;DHT22;51043;52.406;9.690;2023-03-11T00:45:29;0.30;99.90
64634;DHT22;51043;52.406;9.690;2023-03-11T00:47:56;0.30;99.90
64634;DHT22;51043;52.406;9.690;2023-03-11T00:50:27;0.30;99.90
64634;DHT22;51043;52.406;9.690;2023-03-11T00:52:55;0.30;99.90
64634;DHT22;51043;52.406;9.690;2023-03-11T00:55:26;0.30;99.90
64634;DHT22;51043;52.406;9.690;2023-03-11T00:58:00;0.30;99.90
64634;DHT22;51043;52.406;9.690;2023-03-11T01:00:34;0.30;99.90
64634;DHT22;51043;52.406;9.690;2023-03-11T01:03:02;0.30;99.90
64634;DHT22;51043;52.406;9.690;2023-03-11T01:05:32;0.30;99.90
64634;DHT22;51043;52.406;9.690;2023-03-11T01:08:01;0.20;99.90
64634;DHT22;51043;52.406;9.690;2023-03-11T01:10:29;0.30;99.90
64634;DHT22;51043;52.406;9.690;2023-03-11T01:12:57;0.30;99.90
64634;DHT22;51043;52.406;9.690;2023-03-11T01:15:31;0.30;99.90
64634;DHT22;51043;52.406;9.690;2023-03-11T01:17:58;0.30;99.90
64634;DHT22;51043;52.406;9.690;2023-03-11T01:20:25;0.30;99.90
64634;DHT22;51043;52.406;9.690;2023-03-11T01:22:53;0.20;99.90
64634;DHT22;51043;52.406;9.690;2023-03-11T01:25:21;0.20;99.90
64634;DHT22;51043;52.406;9.690;2023-03-11T01:27:49;0.20;99.90
64634;DHT22;51043;52.406;9.690;2023-03-11T01:30:21;0.20;99.90
64634;DHT22;51043;52.406;9.690;2023-03-11T01:32:50;0.20;99.90
64634;DHT22;51043;52.406;9.690;2023-03-11T01:35:19;0.20;99.90
64634;DHT22;51043;52.406;9.690;2023-03-11T01:37:46;0.20;99.90
64634;DHT22;51043;52.406;9.690;2023-03-11T01:40:20;0.20;99.90
64634;DHT22;51043;52.406;9.690;2023-03-11T01:42:49;0.20;99.90
64634;DHT22;51043;52.406;9.690;2023-03-11T01:45:30;0.20;99.90
64634;DHT22;51043;52.406;9.690;2023-03-11T01:47:59;0.20;99.90
64634;DHT22;51043;52.406;9.690;2023-03-11T01:50:32;0.20;99.90
64634;DHT22;51043;52.406;9.690;2023-03-11T01:53:01;0.20;99.90
64634;DHT22;51043;52.406;9.690;2023-03-11T01:55:28;0.20;99.90
64634;DHT22;51043;52.406;9.690;2023-03-11T01:57:58;0.20;99.90
64634;DHT22;51043;52.406;9.690;2023-03-11T02:00:26;0.20;99.90
64634;DHT22;51043;52.406;9.690;2023-03-11T02:02:56;0.30;99.90
64634;DHT22;51043;52.406;9.690;2023-03-11T02:05:24;0.20;99.90
64634;DHT22;51043;52.406;9.690;2023-03-11T02:07:53;0.20;99.90
64634;DHT22;51043;52.406;9.690;2023-03-11T02:10:24;0.20;99.90
64634;DHT22;51043;52.406;9.690;2023-03-11T02:12:53;0.20;99.90
64634;DHT22;51043;52.406;9.690;2023-03-11T02:15:26;0.20;99.90
64634;DHT22;51043;52.406;9.690;2023-03-11T02:17:57;0.20;99.90
64634;DHT22;51043;52.406;9.690;2023-03-11T02:23:13;0.20;99.90
64634;DHT22;51043;52.406;9.690;2023-03-11T02:28:22;0.20;99.90
64634;DHT22;51043;52.406;9.690;2023-03-11T02:30:50;0.20;99.90
64634;DHT22;51043;52.406;9.690;2023-03-11T02:33:18;0.20;99.90
64634;DHT22;51043;52.406;9.690;2023-03-11T02:35:46;0.20;99.90
64634;DHT22;51043;52.406;9.690;2023-03-11T02:38:13;0.20;99.90
64634;DHT22;51043;52.406;9.690;2023-03-11T02:40:47;0.30;99.90
64634;DHT22;51043;52.406;9.690;2023-03-11T02:43:27;0.20;99.90
64634;DHT22;51043;52.406;9.690;2023-03-11T02:45:56;0.20;99.90
64634;DHT22;51043;52.406;9.690;2023-03-11T02:48:23;0.20;99.90
64634;DHT22;51043;52.406;9.690;2023-03-11T02:50:51;0.20;99.90
64634;DHT22;51043;52.406;9.690;2023-03-11T02:53:18;0.10;99.90
64634;DHT22;51043;52.406;9.690;2023-03-11T02:55:46;0.20;99.90
64634;DHT22;51043;52.406;9.690;2023-03-11T02:58:13;0.20;99.90
64634;DHT22;51043;52.406;9.690;2023-03-11T03:00:44;0.70;99.90
64634;DHT22;51043;52.406;9.690;2023-03-11T03:03:11;0.30;99.90
64634;DHT22;51043;52.406;9.690;2023-03-11T03:05:39;0.30;99.90
64634;DHT22;51043;52.406;9.690;2023-03-11T03:08:06;0.20;99.90
64634;DHT22;51043;52.406;9.690;2023-03-11T03:10:35;0.20;99.90
64634;DHT22;51043;52.406;9.690;2023-03-11T03:13:02;0.30;99.90
64634;DHT22;51043;52.406;9.690;2023-03-11T03:15:30;0.20;99.90
64634;DHT22;51043;52.406;9.690;2023-03-11T03:17:58;0.20;99.90
64634;DHT22;51043;52.406;9.690;2023-03-11T03:20:25;0.20;99.90
64634;DHT22;51043;52.406;9.690;2023-03-11T03:22:56;0.20;99.90
64634;DHT22;51043;52.406;9.690;2023-03-11T03:25:27;0.20;99.90
64634;DHT22;51043;52.406;9.690;2023-03-11T03:27:56;0.20;99.90
64634;DHT22;51043;52.406;9.690;2023-03-11T03:30:24;0.20;99.90
64634;DHT22;51043;52.406;9.690;2023-03-11T03:32:54;0.20;99.90
64634;DHT22;51043;52.406;9.690;2023-03-11T03:35:21;0.20;99.90
64634;DHT22;51043;52.406;9.690;2023-03-11T03:38:11;0.20;99.90
64634;DHT22;51043;52.406;9.690;2023-03-11T03:40:44;0.20;99.90
64634;DHT22;51043;52.406;9.690;2023-03-11T03:43:11;0.20;99.90
64634;DHT22;51043;52.406;9.690;2023-03-11T03:45:42;0.20;99.90
64634;DHT22;51043;52.406;9.690;2023-03-11T03:48:09;0.20;99.90
64634;DHT22;51043;52.406;9.690;2023-03-11T03:50:40;0.20;99.90
64634;DHT22;51043;52.406;9.690;2023-03-11T03:53:10;0.20;99.90
64634;DHT22;51043;52.406;9.690;2023-03-11T03:55:38;0.20;99.90
64634;DHT22;51043;52.406;9.690;2023-03-11T03:58:04;0.20;99.90
64634;DHT22;51043;52.406;9.690;2023-03-11T04:00:34;0.20;99.90
64634;DHT22;51043;52.406;9.690;2023-03-11T04:03:02;0.20;99.90
64634;DHT22;51043;52.406;9.690;2023-03-11T04:05:40;0.20;99.90
64634;DHT22;51043;52.406;9.690;2023-03-11T04:08:07;0.20;99.90
64634;DHT22;51043;52.406;9.690;2023-03-11T04:10:34;0.30;99.90
64634;DHT22;51043;52.406;9.690;2023-03-11T04:13:02;0.20;99.90
64634;DHT22;51043;52.406;9.690;2023-03-11T04:15:31;0.20;99.90
64634;DHT22;51043;52.406;9.690;2023-03-11T04:17:58;0.20;99.90
64634;DHT22;51043;52.406;9.690;2023-03-11T04:20:28;0.20;99.90
64634;DHT22;51043;52.406;9.690;2023-03-11T04:22:55;0.20;99.90
64634;DHT22;51043;52.406;9.690;2023-03-11T04:25:26;0.20;99.90
64634;DHT22;51043;52.406;9.690;2023-03-11T04:27:53;0.20;99.90
64634;DHT22;51043;52.406;9.690;2023-03-11T04:30:21;0.20;99.90
64634;DHT22;51043;52.406;9.690;2023-03-11T04:32:52;0.20;99.90
64634;DHT22;51043;52.406;9.690;2023-03-11T04:35:19;0.10;99.90
64634;DHT22;51043;52.406;9.690;2023-03-11T04:37:47;0.10;99.90
64634;DHT22;51043;52.406;9.690;2023-03-11T04:40:16;0.10;99.90
64634;DHT22;51043;52.406;9.690;2023-03-11T04:42:44;0.00;99.90
64634;DHT22;51043;52.406;9.690;2023-03-11T04:45:12;0.00;99.90
64634;DHT22;51043;52.406;9.690;2023-03-11T04:47:41;0.00;99.90
64634;DHT22;51043;52.406;9.690;2023-03-11T04:50:08;0.00;99.90
64634;DHT22;51043;52.406;9.690;2023-03-11T04:52:35;-0.10;99.90
64634;DHT22;51043;52.406;9.690;2023-03-11T04:55:02;0.00;99.90
64634;DHT22;51043;52.406;9.690;2023-03-11T04:57:31;-0.20;99.90
64634;DHT22;51043;52.406;9.690;2023-03-11T04:59:58;-0.20;99.90
64634;DHT22;51043;52.406;9.690;2023-03-11T05:02:25;-0.20;99.90
64634;DHT22;51043;52.406;9.690;2023-03-11T05:04:57;-0.20;99.90
64634;DHT22;51043;52.406;9.690;2023-03-11T05:07:24;-0.10;99.90
64634;DHT22;51043;52.406;9.690;2023-03-11T05:09:51;-0.10;99.90
64634;DHT22;51043;52.406;9.690;2023-03-11T05:12:19;0.00;99.90
64634;DHT22;51043;52.406;9.690;2023-03-11T05:14:50;-0.10;99.90
64634;DHT22;51043;52.406;9.690;2023-03-11T05:17:19;0.00;99.90
64634;DHT22;51043;52.406;9.690;2023-03-11T05:19:48;0.00;99.90
64634;DHT22;51043;52.406;9.690;2023-03-11T05:22:21;0.00;99.90
64634;DHT22;51043;52.406;9.690;2023-03-11T05:24:48;0.00;99.90
64634;DHT22;51043;52.406;9.690;2023-03-11T05:27:15;0.00;99.90
64634;DHT22;51043;52.406;9.690;2023-03-11T05:29:48;-0.10;99.90
64634;DHT22;51043;52.406;9.690;2023-03-11T05:32:16;0.00;99.90
64634;DHT22;51043;52.406;9.690;2023-03-11T05:34:47;0.00;99.90
64634;DHT22;51043;52.406;9.690;2023-03-11T05:37:15;0.00;99.90
64634;DHT22;51043;52.406;9.690;2023-03-11T05:39:43;-0.10;99.90
64634;DHT22;51043;52.406;9.690;2023-03-11T05:42:11;-0.10;99.90
64634;DHT22;51043;52.406;9.690;2023-03-11T05:44:39;0.00;99.90
64634;DHT22;51043;52.406;9.690;2023-03-11T05:47:07;-0.10;99.90
64634;DHT22;51043;52.406;9.690;2023-03-11T05:49:34;-0.10;99.90
64634;DHT22;51043;52.406;9.690;2023-03-11T05:52:01;-0.10;99.90
64634;DHT22;51043;52.406;9.690;2023-03-11T05:54:30;-0.10;99.90
64634;DHT22;51043;52.406;9.690;2023-03-11T05:56:57;-0.10;99.90
64634;DHT22;51043;52.406;9.690;2023-03-11T05:59:24;-0.10;99.90
64634;DHT22;51043;52.406;9.690;2023-03-11T06:02:00;-0.10;99.90
64634;DHT22;51043;52.406;9.690;2023-03-11T06:04:27;-0.10;99.90
64634;DHT22;51043;52.406;9.690;2023-03-11T06:06:55;-0.10;99.90
64634;DHT22;51043;52.406;9.690;2023-03-11T06:09:25;0.00;99.90
64634;DHT22;51043;52.406;9.690;2023-03-11T06:11:53;0.00;99.90
64634;DHT22;51043;52.406;9.690;2023-03-11T06:14:23;0.00;99.90
64634;DHT22;51043;52.406;9.690;2023-03-11T06:16:50;0.10;99.90
64634;DHT22;51043;52.406;9.690;2023-03-11T06:19:23;0.10;99.90
64634;DHT22;51043;52.406;9.690;2023-03-11T06:21:51;0.10;99.90
64634;DHT22;51043;52.406;9.690;2023-03-11T06:24:24;0.10;99.90
64634;DHT22;51043;52.406;9.690;2023-03-11T06:26:52;0.10;99.90
64634;DHT22;51043;52.406;9.690;2023-03-11T06:29:22;0.00;99.90
64634;DHT22;51043;52.406;9.690;2023-03-11T06:31:53;0.00;99.90
64634;DHT22;51043;52.406;9.690;2023-03-11T06:34:21;0.00;99.90
64634;DHT22;51043;52.406;9.690;2023-03-11T06:36:50;0.10;99.90
64634;DHT22;51043;52.406;9.690;2023-03-11T06:39:17;0.10;99.90
64634;DHT22;51043;52.406;9.690;2023-03-11T06:41:47;0.10;99.90
64634;DHT22;51043;52.406;9.690;2023-03-11T06:44:15;0.10;99.90
64634;DHT22;51043;52.406;9.690;2023-03-11T06:46:42;0.10;99.90
64634;DHT22;51043;52.406;9.690;2023-03-11T06:49:10;0.10;99.90
64634;DHT22;51043;52.406;9.690;2023-03-11T06:51:39;0.10;99.90
64634;DHT22;51043;52.406;9.690;2023-03-11T06:54:09;0.10;99.90
64634;DHT22;51043;52.406;9.690;2023-03-11T06:56:36;0.20;99.90
64634;DHT22;51043;52.406;9.690;2023-03-11T06:59:06;0.10;99.90
64634;DHT22;51043;52.406;9.690;2023-03-11T07:01:33;0.10;99.90
64634;DHT22;51043;52.406;9.690;2023-03-11T07:04:03;0.20;99.90
64634;DHT22;51043;52.406;9.690;2023-03-11T07:06:31;0.20;99.90
64634;DHT22;51043;52.406;9.690;2023-03-11T07:09:15;0.20;99.90
64634;DHT22;51043;52.406;9.690;2023-03-11T07:11:47;0.20;99.90
64634;DHT22;51043;52.406;9.690;2023-03-11T07:14:21;0.20;99.90
64634;DHT22;51043;52.406;9.690;2023-03-11T07:16:52;0.10;99.90
64634;DHT22;51043;52.406;9.690;2023-03-11T07:19:26;0.20;99.90
64634;DHT22;51043;52.406;9.690;2023-03-11T07:21:53;0.30;99.90
64634;DHT22;51043;52.406;9.690;2023-03-11T07:24:20;0.30;99.90
64634;DHT22;51043;52.406;9.690;2023-03-11T07:26:47;0.30;99.90
64634;DHT22;51043;52.406;9.690;2023-03-11T07:29:14;0.20;99.90
64634;DHT22;51043;52.406;9.690;2023-03-11T07:31:41;0.40;99.90
64634;DHT22;51043;52.406;9.690;2023-03-11T07:34:11;0.40;99.90
64634;DHT22;51043;52.406;9.690;2023-03-11T07:36:39;0.40;99.90
64634;DHT22;51043;52.406;9.690;2023-03-11T07:39:07;0.40;99.90
64634;DHT22;51043;52.406;9.690;2023-03-11T07:41:34;0.40;99.90
64634;DHT22;51043;52.406;9.690;2023-03-11T07:44:03;0.40;99.90
64634;DHT22;51043;52.406;9.690;2023-03-11T07:46:31;0.40;99.90
64634;DHT22;51043;52.406;9.690;2023-03-11T07:48:59;0.40;99.90
64634;DHT22;51043;52.406;9.690;2023-03-11T07:51:29;0.30;99.90
64634;DHT22;51043;52.406;9.690;2023-03-11T07:53:58;0.30;99.90
64634;DHT22;51043;52.406;9.690;2023-03-11T07:56:27;0.40;99.90
64634;DHT22;51043;52.406;9.690;2023-03-11T07:58:57;0.30;99.90
64634;DHT22;51043;52.406;9.690;2023-03-11T08:01:30;0.30;99.90
64634;DHT22;51043;52.406;9.690;2023-03-11T08:04:03;1.10;99.90
64634;DHT22;51043;52.406;9.690;2023-03-11T08:06:33;2.30;99.90
64634;DHT22;51043;52.406;9.690;2023-03-11T08:09:02;3.50;99.90
64634;DHT22;51043;52.406;9.690;2023-03-11T08:11:33;4.00;99.90
64634;DHT22;51043;52.406;9.690;2023-03-11T08:14:00;4.40;99.90
64634;DHT22;51043;52.406;9.690;2023-03-11T08:16:28;5.10;99.90
64634;DHT22;51043;52.406;9.690;2023-03-11T08:18:55;5.20;99.90
64634;DHT22;51043;52.406;9.690;2023-03-11T08:21:26;4.70;99.90
64634;DHT22;51043;52.406;9.690;2023-03-11T08:23:59;4.30;99.90
64634;DHT22;51043;52.406;9.690;2023-03-11T08:26:27;3.70;99.90
64634;DHT22;51043;52.406;9.690;2023-03-11T08:28:55;3.20;99.90
64634;DHT22;51043;52.406;9.690;2023-03-11T08:31:26;3.00;99.90
64634;DHT22;51043;52.406;9.690;2023-03-11T08:33:56;2.80;99.90
64634;DHT22;51043;52.406;9.690;2023-03-11T08:36:24;3.80;99.90
64634;DHT22;51043;52.406;9.690;2023-03-11T08:38:51;4.70;99.90
64634;DHT22;51043;52.406;9.690;2023-03-11T08:41:19;5.70;99.90
64634;DHT22;51043;52.406;9.690;2023-03-11T08:43:46;6.60;99.90
64634;DHT22;51043;52.406;9.690;2023-03-11T08:46:25;7.40;99.90
64634;DHT22;51043;52.406;9.690;2023-03-11T08:48:53;7.80;99.90
64634;DHT22;51043;52.406;9.690;2023-03-11T08:51:21;8.70;99.90
64634;DHT22;51043;52.406;9.690;2023-03-11T08:53:49;9.70;99.90
64634;DHT22;51043;52.406;9.690;2023-03-11T08:56:16;9.60;99.90
64634;DHT22;51043;52.406;9.690;2023-03-11T08:58:45;8.90;99.90
64634;DHT22;51043;52.406;9.690;2023-03-11T09:01:12;8.20;99.90
64634;DHT22;51043;52.406;9.690;2023-03-11T09:03:39;7.50;99.90
64634;DHT22;51043;52.406;9.690;2023-03-11T09:06:09;7.10;99.90
64634;DHT22;51043;52.406;9.690;2023-03-11T09:08:37;7.10;99.90
64634;DHT22;51043;52.406;9.690;2023-03-11T09:11:04;7.70;99.90
64634;DHT22;51043;52.406;9.690;2023-03-11T09:13:31;8.70;99.90
64634;DHT22;51043;52.406;9.690;2023-03-11T09:15:58;9.70;99.90
64634;DHT22;51043;52.406;9.690;2023-03-11T09:18:25;10.80;99.90
64634;DHT22;51043;52.406;9.690;2023-03-11T09:20:54;10.80;99.90
64634;DHT22;51043;52.406;9.690;2023-03-11T09:23:24;11.10;99.90
64634;DHT22;51043;52.406;9.690;2023-03-11T09:25:51;11.20;99.90
64634;DHT22;51043;52.406;9.690;2023-03-11T09:28:18;11.70;99.90
64634;DHT22;51043;52.406;9.690;2023-03-11T09:30:45;11.70;99.90
64634;DHT22;51043;52.406;9.690;2023-03-11T09:33:12;11.20;99.90
64634;DHT22;51043;52.406;9.690;2023-03-11T09:35:39;11.20;99.90
64634;DHT22;51043;52.406;9.690;2023-03-11T09:38:06;10.70;99.90
64634;DHT22;51043;52.406;9.690;2023-03-11T09:51:36;8.80;99.90
64634;DHT22;51043;52.406;9.690;2023-03-11T09:54:10;8.50;99.90
64634;DHT22;51043;52.406;9.690;2023-03-11T09:56:41;8.60;99.90
64634;DHT22;51043;52.406;9.690;2023-03-11T09:59:22;8.80;99.90
64634;DHT22;51043;52.406;9.690;2023-03-11T10:01:51;8.90;99.90
64634;DHT22;51043;52.406;9.690;2023-03-11T10:07:01;9.10;99.90
64634;DHT22;51043;52.406;9.690;2023-03-11T10:09:36;8.50;99.90
64634;DHT22;51043;52.406;9.690;2023-03-11T10:20:25;8.90;99.90
64634;DHT22;51043;52.406;9.690;2023-03-11T10:25:32;9.40;99.90
64634;DHT22;51043;52.406;9.690;2023-03-11T10:28:11;10.10;99.90
64634;DHT22;51043;52.406;9.690;2023-03-11T10:30:52;10.30;99.90
64634;DHT22;51043;52.406;9.690;2023-03-11T10:33:38;10.50;99.90
64634;DHT22;51043;52.406;9.690;2023-03-11T10:36:16;10.50;99.90
64634;DHT22;51043;52.406;9.690;2023-03-11T10:38:47;10.90;99.90
64634;DHT22;51043;52.406;9.690;2023-03-11T10:44:01;10.80;99.90
64634;DHT22;51043;52.406;9.690;2023-03-11T10:46:30;10.80;99.90
64634;DHT22;51043;52.406;9.690;2023-03-11T10:48:57;11.20;99.90
64634;DHT22;51043;52.406;9.690;2023-03-11T10:51:26;11.80;99.90
64634;DHT22;51043;52.406;9.690;2023-03-11T10:53:59;11.80;99.90
64634;DHT22;51043;52.406;9.690;2023-03-11T10:58:56;11.60;99.60
64634;DHT22;51043;52.406;9.690;2023-03-11T11:01:23;10.90;99.90
64634;DHT22;51043;52.406;9.690;2023-03-11T11:03:53;10.50;99.90
64634;DHT22;51043;52.406;9.690;2023-03-11T11:06:25;10.60;99.90
64634;DHT22;51043;52.406;9.690;2023-03-11T11:09:16;10.60;99.90
64634;DHT22;51043;52.406;9.690;2023-03-11T11:12:03;11.00;99.90
64634;DHT22;51043;52.406;9.690;2023-03-11T11:14:41;11.10;99.90
64634;DHT22;51043;52.406;9.690;2023-03-11T11:17:29;11.80;99.90
64634;DHT22;51043;52.406;9.690;2023-03-11T11:20:01;12.80;99.90
64634;DHT22;51043;52.406;9.690;2023-03-11T11:22:48;12.90;93.50
64634;DHT22;51043;52.406;9.690;2023-03-11T11:25:34;12.80;97.50
64634;DHT22;51043;52.406;9.690;2023-03-11T11:28:13;13.20;93.70
64634;DHT22;51043;52.406;9.690;2023-03-11T11:30:54;13.00;95.00
64634;DHT22;51043;52.406;9.690;2023-03-11T11:33:48;13.20;95.10
64634;DHT22;51043;52.406;9.690;2023-03-11T11:36:17;13.00;91.10
64634;DHT22;51043;52.406;9.690;2023-03-11T11:38:44;12.50;93.10
64634;DHT22;51043;52.406;9.690;2023-03-11T11:41:17;11.90;93.90
64634;DHT22;51043;52.406;9.690;2023-03-11T11:43:59;11.20;97.70
64634;DHT22;51043;52.406;9.690;2023-03-11T11:46:36;11.30;98.00
64634;DHT22;51043;52.406;9.690;2023-03-11T11:49:20;11.50;96.30
64634;DHT22;51043;52.406;9.690;2023-03-11T11:51:53;11.20;95.30
64634;DHT22;51043;52.406;9.690;2023-03-11T11:56:55;11.70;95.10
64634;DHT22;51043;52.406;9.690;2023-03-11T11:59:26;11.30;93.10
64634;DHT22;51043;52.406;9.690;2023-03-11T12:11:18;11.60;95.70
64634;DHT22;51043;52.406;9.690;2023-03-11T12:14:12;12.60;96.70
64634;DHT22;51043;52.406;9.690;2023-03-11T12:16:58;13.00;91.40
64634;DHT22;51043;52.406;9.690;2023-03-11T12:25:53;11.60;91.30
64634;DHT22;51043;52.406;9.690;2023-03-11T12:28:44;11.00;94.00
64634;DHT22;51043;52.406;9.690;2023-03-11T12:31:15;10.90;92.50
64634;DHT22;51043;52.406;9.690;2023-03-11T12:33:45;10.20;98.30
64634;DHT22;51043;52.406;9.690;2023-03-11T12:36:30;10.40;99.60
64634;DHT22;51043;52.406;9.690;2023-03-11T12:39:03;9.90;99.90
64634;DHT22;51043;52.406;9.690;2023-03-11T12:41:35;9.30;98.60
64634;DHT22;51043;52.406;9.690;2023-03-11T12:44:28;8.00;99.90
64634;DHT22;51043;52.406;9.690;2023-03-11T12:47:00;6.40;99.90
64634;DHT22;51043;52.406;9.690;2023-03-11T12:49:39;5.70;99.90
64634;DHT22;51043;52.406;9.690;2023-03-11T12:57:36;4.80;99.90
64634;DHT22;51043;52.406;9.690;2023-03-11T13:00:23;4.70;99.90
64634;DHT22;51043;52.406;9.690;2023-03-11T13:03:15;4.80;99.90
64634;DHT22;51043;52.406;9.690;2023-03-11T13:16:50;4.50;99.90
64634;DHT22;51043;52.406;9.690;2023-03-11T13:19:36;4.60;99.90
64634;DHT22;51043;52.406;9.690;2023-03-11T13:22:05;4.40;99.90
64634;DHT22;51043;52.406;9.690;2023-03-11T13:24:49;4.40;99.90
64634;DHT22;51043;52.406;9.690;2023-03-11T13:27:30;4.50;99.90
64634;DHT22;51043;52.406;9.690;2023-03-11T13:30:13;4.40;99.90
64634;DHT22;51043;52.406;9.690;2023-03-11T13:41:00;4.20;99.90
64634;DHT22;51043;52.406;9.690;2023-03-11T13:43:31;4.20;99.90
64634;DHT22;51043;52.406;9.690;2023-03-11T13:46:02;4.20;99.90
64634;DHT22;51043;52.406;9.690;2023-03-11T13:48:36;4.20;99.90
64634;DHT22;51043;52.406;9.690;2023-03-11T13:51:30;4.30;99.90
64634;DHT22;51043;52.406;9.690;2023-03-11T13:54:04;4.30;99.90
64634;DHT22;51043;52.406;9.690;2023-03-11T13:56:45;4.20;99.90
64634;DHT22;51043;52.406;9.690;2023-03-11T13:59:16;4.20;99.90
64634;DHT22;51043;52.406;9.690;2023-03-11T14:01:54;4.20;99.90
64634;DHT22;51043;52.406;9.690;2023-03-11T14:04:33;4.10;99.90
64634;DHT22;51043;52.406;9.690;2023-03-11T14:07:12;4.20;99.90
64634;DHT22;51043;52.406;9.690;2023-03-11T14:09:40;4.20;99.90
64634;DHT22;51043;52.406;9.690;2023-03-11T14:12:07;4.20;99.90
64634;DHT22;51043;52.406;9.690;2023-03-11T14:17:16;4.30;99.90
64634;DHT22;51043;52.406;9.690;2023-03-11T14:22:37;4.10;99.90
64634;DHT22;51043;52.406;9.690;2023-03-11T14:25:09;4.10;99.90
64634;DHT22;51043;52.406;9.690;2023-03-11T14:27:37;4.10;99.90
64634;DHT22;51043;52.406;9.690;2023-03-11T14:30:05;4.10;99.90
64634;DHT22;51043;52.406;9.690;2023-03-11T14:32:34;4.10;99.90
64634;DHT22;51043;52.406;9.690;2023-03-11T14:35:15;4.10;99.90
64634;DHT22;51043;52.406;9.690;2023-03-11T14:37:43;4.10;99.90
64634;DHT22;51043;52.406;9.690;2023-03-11T14:40:31;4.00;99.90
64634;DHT22;51043;52.406;9.690;2023-03-11T14:43:05;4.00;99.90
64634;DHT22;51043;52.406;9.690;2023-03-11T14:45:35;3.90;99.90
64634;DHT22;51043;52.406;9.690;2023-03-11T14:48:11;3.90;99.90
64634;DHT22;51043;52.406;9.690;2023-03-11T14:50:44;3.90;99.90
64634;DHT22;51043;52.406;9.690;2023-03-11T14:53:29;3.90;99.90
64634;DHT22;51043;52.406;9.690;2023-03-11T14:56:17;4.00;99.90
64634;DHT22;51043;52.406;9.690;2023-03-11T14:59:03;4.00;99.90
64634;DHT22;51043;52.406;9.690;2023-03-11T15:01:38;3.90;99.90
64634;DHT22;51043;52.406;9.690;2023-03-11T15:06:34;4.00;99.90
64634;DHT22;51043;52.406;9.690;2023-03-11T15:09:13;4.00;99.90
64634;DHT22;51043;52.406;9.690;2023-03-11T15:11:55;3.90;99.90
64634;DHT22;51043;52.406;9.690;2023-03-11T15:14:35;3.90;99.90
64634;DHT22;51043;52.406;9.690;2023-03-11T15:17:15;3.90;99.90
64634;DHT22;51043;52.406;9.690;2023-03-11T15:19:59;3.90;99.90
64634;DHT22;51043;52.406;9.690;2023-03-11T15:22:35;3.90;99.90
64634;DHT22;51043;52.406;9.690;2023-03-11T15:25:14;3.90;99.90
64634;DHT22;51043;52.406;9.690;2023-03-11T15:27:41;3.90;99.90
64634;DHT22;51043;52.406;9.690;2023-03-11T15:30:20;3.90;99.90
64634;DHT22;51043;52.406;9.690;2023-03-11T15:32:49;3.80;99.90
64634;DHT22;51043;52.406;9.690;2023-03-11T15:35:23;3.80;99.90
64634;DHT22;51043;52.406;9.690;2023-03-11T15:38:31;3.70;99.90
64634;DHT22;51043;52.406;9.690;2023-03-11T15:41:00;3.80;99.90
64634;DHT22;51043;52.406;9.690;2023-03-11T15:43:34;3.80;99.90
64634;DHT22;51043;52.406;9.690;2023-03-11T15:46:11;3.80;99.90
64634;DHT22;51043;52.406;9.690;2023-03-11T15:48:38;3.80;99.90
64634;DHT22;51043;52.406;9.690;2023-03-11T15:51:16;3.80;99.90
64634;DHT22;51043;52.406;9.690;2023-03-11T15:53:43;3.80;99.90
64634;DHT22;51043;52.406;9.690;2023-03-11T15:56:14;3.70;99.90
64634;DHT22;51043;52.406;9.690;2023-03-11T15:58:43;3.70;99.90
64634;DHT22;51043;52.406;9.690;2023-03-11T16:01:10;4.00;99.90
64634;DHT22;51043;52.406;9.690;2023-03-11T16:03:37;3.60;99.90
64634;DHT22;51043;52.406;9.690;2023-03-11T16:06:05;3.60;99.90
64634;DHT22;51043;52.406;9.690;2023-03-11T16:08:32;3.60;99.90
64634;DHT22;51043;52.406;9.690;2023-03-11T16:11:00;3.60;99.90
64634;DHT22;51043;52.406;9.690;2023-03-11T16:13:27;3.60;99.90
64634;DHT22;51043;52.406;9.690;2023-03-11T16:15:57;3.70;99.90
64634;DHT22;51043;52.406;9.690;2023-03-11T16:18:23;3.50;99.90
64634;DHT22;51043;52.406;9.690;2023-03-11T16:20:52;3.50;99.90
64634;DHT22;51043;52.406;9.690;2023-03-11T16:23:22;3.50;99.90
64634;DHT22;51043;52.406;9.690;2023-03-11T16:25:56;3.50;99.90
64634;DHT22;51043;52.406;9.690;2023-03-11T16:28:24;3.50;99.90
64634;DHT22;51043;52.406;9.690;2023-03-11T16:30:51;3.40;99.90
64634;DHT22;51043;52.406;9.690;2023-03-11T16:33:18;3.40;99.90
64634;DHT22;51043;52.406;9.690;2023-03-11T16:35:45;3.30;99.90
64634;DHT22;51043;52.406;9.690;2023-03-11T16:38:13;3.20;99.90
64634;DHT22;51043;52.406;9.690;2023-03-11T16:40:40;3.10;99.90
64634;DHT22;51043;52.406;9.690;2023-03-11T16:43:09;3.10;99.90
64634;DHT22;51043;52.406;9.690;2023-03-11T16:45:37;3.10;99.90
64634;DHT22;51043;52.406;9.690;2023-03-11T16:48:04;3.10;99.90
64634;DHT22;51043;52.406;9.690;2023-03-11T16:50:35;3.10;99.90
64634;DHT22;51043;52.406;9.690;2023-03-11T16:53:03;3.00;99.90
64634;DHT22;51043;52.406;9.690;2023-03-11T16:55:30;3.00;99.90
64634;DHT22;51043;52.406;9.690;2023-03-11T16:58:00;3.00;99.90
64634;DHT22;51043;52.406;9.690;2023-03-11T17:00:27;2.90;99.90
64634;DHT22;51043;52.406;9.690;2023-03-11T17:02:54;2.80;99.90
64634;DHT22;51043;52.406;9.690;2023-03-11T17:05:22;2.80;99.90
64634;DHT22;51043;52.406;9.690;2023-03-11T17:07:56;2.70;99.90
64634;DHT22;51043;52.406;9.690;2023-03-11T17:10:27;2.60;99.90
64634;DHT22;51043;52.406;9.690;2023-03-11T17:12:54;2.60;99.90
64634;DHT22;51043;52.406;9.690;2023-03-11T17:15:21;2.50;99.90
64634;DHT22;51043;52.406;9.690;2023-03-11T17:17:48;2.40;99.90
64634;DHT22;51043;52.406;9.690;2023-03-11T17:20:16;2.40;99.90
64634;DHT22;51043;52.406;9.690;2023-03-11T17:22:45;2.30;99.90
64634;DHT22;51043;52.406;9.690;2023-03-11T17:25:12;2.20;99.90
64634;DHT22;51043;52.406;9.690;2023-03-11T17:27:39;2.20;99.90
64634;DHT22;51043;52.406;9.690;2023-03-11T17:30:07;2.10;99.90
64634;DHT22;51043;52.406;9.690;2023-03-11T17:32:34;2.00;99.90